5k De Mayo

Age Group Results

May 07, 2016


Endurance Splits, LLC www.endurancesplits.com


Men: 1-14 15-19 20-29 30-39 40-49 50-99
Women: 1-14 15-19 20-29 30-39 40-49 50-99

5K

Top

Female 14 and Under

Place Name City Bib No Age Overall Total Time Pace
1 alexis ibarra 90003 13 101 24:29.3 8:10/M
2 adriana espinoza garcia reynosa 109 12 175 27:00.4 9:00/M
3 isabella zuniga 997 11 273 30:17.8 10:06/M
4 Briana Renee Garcia Edinburg 778 14 293 30:49.7 10:16/M
5 Brooke Cruz Mission 902 8 325 32:04.0 10:41/M
6 Chloe Cavazos McAllen 237 10 378 34:04.7 11:21/M
7 DAYANARA SALINAS ROMA 364 10 400 35:00.5 11:40/M
8 Joanna Garcia McAllen 256 14 442 36:33.8 12:11/M
9 Nathaly Ramirez Mission 150 12 508 40:29.9 13:30/M
10 carolina zuniga 995 10 522 41:30.9 13:50/M
11 Sophia Nevarez McAllen 722 7 527 41:44.5 13:55/M
12 Alinah Hernandez Mission 419 12 549 42:37.2 14:12/M
13 Ella Payne McAllen 226 8 575 44:46.1 14:55/M
14 Emily Payne McAllen 227 14 583 45:04.6 15:01/M
15 Landyn Jimenez pharr 378 13 604 46:31.7 15:30/M
16 Lacie Payne McAllen 223 8 681 57:24.9 19:08/M
17 Chris Payne McAllen 225 14 682 57:27.8 19:09/M
Top

Female 15 to 19

Place Name City Bib No Age Overall Total Time Pace
1 brianna robles 991 16 7 18:17.5 6:06/M
2 Mariana Martinez McAllen 54 19 58 22:38.6 7:33/M
3 Laly Zapata Edinburg 99 17 139 25:32.1 8:31/M
4 Gaby Saldana Mission 64 17 217 28:45.6 9:35/M
5 Cynthia Luna Mission 232 16 305 31:15.7 10:25/M
6 adedayo ogunlana 990 15 309 31:20.7 10:27/M
7 Randi Reyes Edinburg 307 19 361 33:24.0 11:08/M
8 samantha gonzalez mcallen 298 18 401 35:03.2 11:41/M
9 Ester Navarro McAllen 180 19 507 40:28.2 13:29/M
10 Tatiana Montemayor McAllen 168 19 544 42:26.7 14:09/M
11 Sarah Corpus Edinburg 349 17 564 43:58.0 14:39/M
12 Natalie Cantu Pharr 49 15 600 46:16.1 15:25/M
13 Kimberly Gonzalez McAllen 302 15 659 53:24.0 17:48/M
14 Raquel Williams Pharr 730 18 671 54:37.2 18:12/M
Top

Female 20 to 29

Place Name City Bib No Age Overall Total Time Pace
1 Daisy Loyde McAllen 432 25 34 21:05.4 7:02/M
2 daniela garcia mission 209 24 50 22:19.8 7:26/M
3 Yadira Moya Mission 23 29 60 22:44.4 7:35/M
4 Jeannte Cano Harlingen 499 22 67 22:57.7 7:39/M
5 Monica Guerra Edinburg 830 28 86 24:15.7 8:05/M
6 Susana Gallegos 849 29 93 24:24.4 8:08/M
7 renee lopez 994 26 99 24:28.1 8:09/M
8 Kaycee Zuniga Harlingen 980 25 116 25:01.6 8:20/M
9 Laura Saenz Alamo 469 26 122 25:13.7 8:24/M
10 Robin Martinez pharr 486 26 123 25:14.4 8:25/M
11 Adriana Gonzalez Brownsville 900 28 124 25:14.6 8:25/M
12 Barbara Flanagan McAllen 448 22 152 26:03.1 8:41/M
13 Crystal Torres Mission 964 26 158 26:14.9 8:45/M
14 Grecia Martinez Pharr 357 23 170 26:45.0 8:55/M
15 Thalya Montemayor McAllen 821 26 178 27:06.2 9:02/M
16 Emma Hilbert McAllen 883 27 181 27:11.9 9:04/M
17 Elizabeth Ibarra Mcallen 446 23 187 27:29.3 9:10/M
18 Stephanie Garza Weslaco 455 22 188 27:31.9 9:10/M
19 Ilse Gonzalez McAllen 797 25 209 28:29.1 9:30/M
20 Shandy Gonzalez McAllen 339 26 215 28:44.0 9:35/M
21 Sonia Garcia MCAllen 773 24 231 29:08.6 9:43/M
22 Daniela Gonzalez Edinburg 342 28 232 29:10.0 9:43/M
23 Monica Cortez Pharr 901 28 248 29:29.6 9:50/M
24 Isobel Roa McAllen 295 24 249 29:35.4 9:52/M
25 Melina Arendol Mcallen 121 20 269 30:05.2 10:02/M
26 Denise Vazquez Palmview 969 24 275 30:22.8 10:07/M
27 Monica Quintanilla Mission 284 25 280 30:29.6 10:10/M
28 Lorena Garcia McAllen 482 26 285 30:31.8 10:10/M
29 Elizabeth Mendoza Edinburg 844 26 286 30:34.4 10:11/M
30 Adriana Ovalle McAllen 784 21 288 30:39.6 10:13/M
31 Laura Perez Mcallen 93 24 291 30:46.9 10:15/M
32 Stephanie Fonseca Raymondville 199 29 292 30:48.2 10:16/M
33 Anakarenn Nunez McAllen 734 27 295 30:51.8 10:17/M
34 Karla Saenz Alamo 470 23 308 31:20.7 10:27/M
35 Vanessa Cardenas Edinburg 466 27 311 31:29.5 10:30/M
36 Vianey Munoz McAllen 437 27 321 31:53.0 10:38/M
37 Karina Cossio Mission 724 26 333 32:22.5 10:47/M
38 Nivia Leyva McAllen 236 25 339 32:42.5 10:54/M
39 Claudia Rios Edinburg 341 26 341 32:48.6 10:56/M
40 Lira Vista Mission 332 28 352 33:06.2 11:02/M
41 Brenda Gonzalez Mission 471 26 355 33:09.2 11:03/M
42 Deannay Avila McAllen tx 744 25 357 33:09.7 11:03/M
43 Karen Torres McAllen 817 25 359 33:21.3 11:07/M
44 Krismaric Espinas Mission 360 27 366 33:34.1 11:11/M
45 Itzel Barra Mission 893 25 380 34:14.4 11:25/M
46 Yesenia De La Rosa MIssion 178 27 381 34:15.7 11:25/M
47 Nallely Lozano Pharr 716 29 383 34:18.1 11:26/M
48 Claudia Luna mission 231 28 385 34:20.0 11:27/M
49 Marlen Mendoza edinburg 452 27 387 34:24.1 11:28/M
50 Vivianna Riojas rio grande city 956 29 390 34:26.3 11:29/M
51 Yukina Takahira Mission 412 27 399 34:56.9 11:39/M
52 Amanda Ramos mission 776 28 405 35:09.0 11:43/M
53 Norma Hinojosa Mission 885 29 418 35:46.0 11:55/M
54 Laura Kenison McAllen 261 28 426 35:54.1 11:58/M
55 Abigail Muñiz-Garcia Pharr 717 29 434 36:10.6 12:03/M
56 Cadence Cadena Mission 214 27 439 36:25.8 12:08/M
57 Miranda Marty Donna 274 23 446 37:04.9 12:21/M
58 Edna Rosales Mission 959 24 452 37:27.3 12:29/M
59 Vilma Trevino McAllen 447 24 455 37:40.7 12:33/M
60 jared yoana gomez gonzalez reynosa 111 20 457 37:46.7 12:35/M
61 Stefany Molina McAllen 176 28 497 39:27.7 13:09/M
62 Angelica Hernandez Weslaco 929 23 504 39:56.2 13:19/M
63 Rosie Ortiz McAllen 92 27 514 41:12.2 13:44/M
64 Elizabeth Luna Edinburg 431 27 518 41:26.6 13:49/M
65 Yanira Garcia pharr 107 28 521 41:28.9 13:49/M
66 Darlene Avalos San Benito 890 26 539 42:17.8 14:06/M
67 Angela Lara San Juan 715 26 541 42:25.2 14:08/M
68 Jasmine Juarez McAllen 493 28 543 42:25.8 14:08/M
69 Haley Murdock Edinburg 852 28 545 42:30.9 14:10/M
70 Christina Escobedo McAllen 479 29 548 42:36.3 14:12/M
71 Lizette Galvan Lyford 703 29 553 43:02.5 14:21/M
72 Alma Tobias Raymondville 704 22 554 43:02.7 14:21/M
73 Jovanna Anzaldua Mission 706 28 556 43:07.2 14:22/M
74 cynthia garcia mission 165 21 569 44:17.6 14:46/M
75 Jeanne Jimenez harlingen 930 28 581 45:02.1 15:01/M
76 Gloria Beltran Edinburg 770 22 602 46:19.2 15:26/M
77 Liliana Hinojosa Raymondville 200 27 623 48:05.0 16:02/M
78 Melissa Salinas Edinburg 736 23 626 48:33.6 16:11/M
79 Brenda Delgado Pharr 76 29 630 48:40.5 16:13/M
80 Jessica Izaguirre Pharr 78 24 642 50:34.1 16:51/M
81 Aleyda Reyes Donna 790 24 645 51:40.0 17:13/M
82 Ana Flores Mcallen 876 29 652 52:59.6 17:40/M
83 Sofi Eckroat McAllen 303 25 653 53:01.1 17:40/M
84 Isenia Galaviz Mission 356 28 661 53:41.4 17:54/M
85 Danielle Rodriguez Palmhurst 355 29 662 53:42.6 17:54/M
86 Nubia Avalos San Benito 891 27 687 1:00:13.1 20:04/M
Top

Female 30 to 39

Place Name City Bib No Age Overall Total Time Pace
1 Genie Palacios Edinburg 154 32 26 20:40.1 6:53/M
2 Gina Zapata McAllen 264 35 31 20:48.4 6:56/M
3 Bertha Gutierrez San Antonio 795 37 32 20:49.8 6:56/M
4 Vanessa Jasso-Rodriguez Edinburg 404 36 44 21:48.3 7:16/M
5 Claudia Guerrero Mission 373 35 57 22:36.8 7:32/M
6 Cris Guerra Mission 106 36 71 23:14.3 7:45/M
7 Diana liset Munoz Mcallen 436 32 77 23:51.7 7:57/M
8 Angeline Rivera Edinburg 491 38 84 24:12.7 8:04/M
9 Natalie Ruiz Pharr 334 33 87 24:18.1 8:06/M
10 Elizabeth Guzman Edinburg 396 33 100 24:29.3 8:10/M
11 Airika Stevens McAllen 90 36 113 24:53.1 8:18/M
12 Mandy Solis Mission 152 39 115 24:56.0 8:19/M
13 Michelle Cantu Mcallen 735 37 119 25:07.3 8:22/M
14 Rubi Yzaguirre McAllen 473 39 120 25:07.3 8:22/M
15 Deandra Zamarron Santa Rosa 314 34 121 25:12.6 8:24/M
16 griselda garcia Pharr 862 30 127 25:19.7 8:26/M
17 Ana Garcia Edinburg 917 30 128 25:20.1 8:27/M
18 Gabriela Sosa Edinburg 456 38 144 25:39.7 8:33/M
19 Berenice Puga Mission 305 37 147 25:45.9 8:35/M
20 Mary Rangel Pharr 397 37 151 26:01.3 8:40/M
21 jessica de leon mcallen 719 37 156 26:09.5 8:43/M
22 Sonia Alaniz Bastrop 62 37 161 26:24.3 8:48/M
23 Nicole Maldonado McAllen 748 34 168 26:39.9 8:53/M
24 Suhayl Cedillo Mission 122 39 171 26:45.3 8:55/M
25 adriana garcia reynosa 110 36 176 27:00.6 9:00/M
26 Adriana Islas-Arredondo Alamo 255 39 177 27:04.5 9:01/M
27 Marissa Harris McAllen 79 39 179 27:08.9 9:03/M
28 Evelin Artalejo Fort Wayne 888 34 195 27:53.0 9:18/M
29 Monica Guerrero Mission 463 33 211 28:32.3 9:31/M
30 Patty Ruiz Alamo 961 31 212 28:34.4 9:31/M
31 Jennifer Olvera Edinburg 318 32 213 28:37.9 9:32/M
32 Claudia longoria edinburg, edinburg 416 35 224 28:53.8 9:38/M
33 Giovanni Bazan Pharr 894 33 226 28:55.5 9:38/M
34 Anna Riojas Rio grande city 398 31 233 29:10.2 9:43/M
35 Sandra Rosas McAllen 337 37 238 29:14.2 9:45/M
36 norma morin 94 39 239 29:16.2 9:45/M
37 Arlene Jimenez Donna 732 31 241 29:18.6 9:46/M
38 cynthia molina Edinburg 325 32 243 29:22.1 9:47/M
39 Jessykah Ramos San Juan 327 34 245 29:24.1 9:48/M
40 Letty Jaramillo Edinburg 405 31 252 29:37.1 9:52/M
41 bernice ramos 44 35 255 29:39.8 9:53/M
42 Edna Noriega Mission 124 37 256 29:42.9 9:54/M
43 Yanette Rangel Weslaco 3 34 259 29:52.5 9:57/M
44 Blanca Garza McAllen 804 33 261 29:53.0 9:58/M
45 maritza davila mission 728 35 264 29:57.5 9:59/M
46 Krystle Trevino Edinburg 247 30 266 29:58.5 9:59/M
47 Valerie Hernandez San Juan 384 37 270 30:05.6 10:02/M
48 Irene Hernandez Edinburg 272 37 271 30:11.4 10:04/M
49 Marabeth Schuster McAllen 474 32 274 30:22.6 10:07/M
50 Brenda Hernandez McAllen 164 36 282 30:29.6 10:10/M
51 Rachel Ayala Brownsville 892 38 287 30:37.9 10:12/M
52 Gonzalez Yoli McAllen 83 32 289 30:45.9 10:15/M
53 Arlene Ramirez pharr 953 35 290 30:46.4 10:15/M
54 Erica Martinez Pharr 485 31 296 30:52.4 10:17/M
55 Cindy Villarreal Sullivan City 179 34 298 30:56.2 10:19/M
56 Jessica Rivera Edinburg 9 32 300 30:57.9 10:19/M
57 Cecilia De los santos weslaco 242 35 302 31:10.7 10:23/M
58 michelle mcclenny Mission 868 37 310 31:24.2 10:28/M
59 Cecilia Solis Weslaco 241 38 314 31:47.5 10:36/M
60 Aracely Garcia Edinburg 343 37 315 31:48.3 10:36/M
61 Brenda Hernandez 836 35 316 31:50.2 10:37/M
62 Janette Tamez Mcallen 374 37 317 31:50.9 10:37/M
63 Karla Marmalejo McAllen 417 30 318 31:51.0 10:37/M
64 Irisha Flores mission 216 37 322 31:57.4 10:39/M
65 Valerie Montemayor McAllen 878 33 326 32:09.3 10:43/M
66 Celia Gutierrez San Antonio 796 35 327 32:11.2 10:44/M
67 Marie Johannsen McAllen 788 32 329 32:15.9 10:45/M
68 Laura Segura Edinburg 352 30 331 32:20.0 10:47/M
69 Kristy Amaro McAllen 91 35 332 32:21.0 10:47/M
70 Eva Segura Edinburg 351 36 334 32:23.3 10:48/M
71 Ximena Chaidez-Wilson Mission 858 38 335 32:23.5 10:48/M
72 Veronica Salazar Edinburg 294 30 338 32:36.3 10:52/M
73 Deanna Dominguez Edinburg 492 38 340 32:48.1 10:56/M
74 Joanne Martinez pharr 136 35 350 33:05.7 11:02/M
75 Marina Campos Lasara 313 31 351 33:05.9 11:02/M
76 Josie Quintanilla Mission 386 38 353 33:08.5 11:03/M
77 Adam Martinez Mission 472 32 358 33:21.1 11:07/M
78 Claudia Beltran McAllen 191 38 362 33:26.7 11:09/M
79 Belinda Moralez Mcallen 198 37 368 33:36.5 11:12/M
80 Jessica Zuniga Alamo 488 34 369 33:37.8 11:12/M
81 Liza Garcia Weslaco 244 36 370 33:39.4 11:13/M
82 Maggie Rodriguez Mission 711 32 371 33:43.8 11:14/M
83 Beatriz Chavez Edinburg 15 34 373 33:50.9 11:17/M
84 LARISSA LOPEZ HARLINGEN 365 31 376 34:02.2 11:21/M
85 Lisa Vargas Mercedes 424 36 382 34:18.1 11:26/M
86 Karina Garcia mcallen 864 37 389 34:25.5 11:28/M
87 Delma Gonzalez Weslaco 240 38 392 34:27.8 11:29/M
88 Iris Perales Brownsville 949 34 393 34:33.3 11:31/M
89 Yvette Guerrero Alamo 841 35 394 34:38.1 11:33/M
90 Angela Tapia Mission 25 36 397 34:50.0 11:37/M
91 April Vallejo Mission 498 34 404 35:06.4 11:42/M
92 Rosie Reyes Edinburg 308 39 406 35:14.8 11:45/M
93 Maria Fuentes McAllen 262 36 407 35:20.4 11:47/M
94 Edna Gonzalez Edinburg 799 36 408 35:31.4 11:50/M
95 sylvia sanchez mcallen 65 39 411 35:34.7 11:51/M
96 Eliza Padilla Mission 945 33 413 35:39.9 11:53/M
97 Melissa Gutierrez La Feria 7 31 414 35:40.8 11:53/M
98 Lorena Hernandez Edinburg 465 36 415 35:41.6 11:54/M
99 Margarita Lopez Edinburg 382 37 416 35:44.4 11:55/M
100 Monica Campbell Edinburg 834 32 417 35:44.4 11:55/M
101 Gabriela Torres McAllen 190 37 419 35:47.2 11:56/M
102 Anel López Mission 172 38 428 35:56.1 11:59/M
103 Maribel Pardo EDINBURG 84 39 431 35:59.2 12:00/M
104 veronica moreno mission 368 31 433 36:04.1 12:01/M
105 Sarah Garza Pharr 311 36 435 36:11.3 12:04/M
106 Lydia N. Perez Edinburg 358 32 438 36:24.7 12:08/M
107 Liza De La Garza McAllen 857 38 440 36:29.8 12:10/M
108 Megan Larson McAllen 761 30 441 36:32.5 12:11/M
109 Amy Gallegos Mission 100 33 449 37:14.6 12:25/M
110 Jessica Luengo McAllen 371 35 451 37:26.4 12:29/M
111 Christina Capetillo Edinburg 317 33 458 37:46.9 12:35/M
112 Tracey Lucero San juan 434 30 462 37:53.0 12:38/M
113 Lisa Cavazos McAllen 239 35 465 38:04.2 12:41/M
114 Veronica Ancona Weslaco 801 38 471 38:23.2 12:48/M
115 Nena Romo Mission 182 32 474 38:43.6 12:54/M
116 Norma Garcia la joya 826 35 477 38:49.2 12:56/M
117 Veronica Ibarra 808 32 479 38:53.8 12:58/M
118 Lynn Salinas mcallen 67 32 485 39:07.1 13:02/M
119 Trang Dawson Houston 904 39 487 39:14.8 13:05/M
120 Laurie Segovia pharr 381 39 489 39:16.2 13:05/M
121 Kristen Woods Mcallen 976 31 491 39:18.7 13:06/M
122 Susie Robles 786 32 493 39:22.9 13:07/M
123 Lily Cuellar San Juan 856 31 498 39:31.0 13:10/M
124 Norma Saenz McAllen 793 39 499 39:37.0 13:12/M
125 Victoria Saldana 880 39 500 39:49.4 13:16/M
126 Melissa Pena McAllen 453 32 505 40:06.8 13:22/M
127 Charonda Wilson Mission 181 38 506 40:06.9 13:22/M
128 Lucy Gutierrez Mission 460 37 510 40:39.6 13:33/M
129 Jennifer Lopez La villa 445 33 517 41:15.0 13:45/M
130 Darlena Contreras Monte Alto 17 35 523 41:31.9 13:50/M
131 Marissa tijerina Edinburg 769 36 524 41:34.7 13:51/M
132 Mandy Silva McAllen 184 34 525 41:41.7 13:54/M
133 Cynthia Villanueva San Juan 46 36 526 41:43.9 13:54/M
134 Valerie Nevarez McAllen 723 35 528 41:44.6 13:55/M
135 CHRISTINA AVALOS SAN BENITO 889 34 534 41:59.1 14:00/M
136 Grace Vasquez Edinburg 731 31 537 42:17.0 14:06/M
137 Sonia Hernandez Mission 418 34 558 43:19.2 14:26/M
138 Amber Romero McAllen 875 30 561 43:50.5 14:37/M
139 BEA SHEARIN EDINBURG 170 39 565 44:00.5 14:40/M
140 Angelica Rivera Misdion 171 39 566 44:00.5 14:40/M
141 iris olivares la joya 167 30 568 44:14.2 14:45/M
142 Esmer Vasquez Weslaco 202 34 573 44:44.0 14:55/M
143 Jessica Abrego mcallen 811 38 589 45:27.8 15:09/M
144 claudia garcia mission 166 31 598 46:01.2 15:20/M
145 Yadira Aldava Weslaco 886 33 608 46:49.4 15:36/M
146 Rene Hernandez San juan 383 30 611 47:00.3 15:40/M
147 Debby Garza McAllen 429 32 618 47:52.6 15:57/M
148 Yvonne Villarreal Pharr 430 31 619 47:53.6 15:58/M
149 Candy Roa San Juan 957 39 625 48:27.3 16:09/M
150 Joanna Coronado Mercedes 791 30 627 48:33.9 16:11/M
151 Volony Buraaga McAllen 195 30 637 50:18.6 16:46/M
152 Lidia Herrera McAllen 194 31 638 50:19.3 16:46/M
153 Ashley Ramos mcallen 321 31 647 51:53.0 17:18/M
154 LOURDES Hidalgo Mcallen 322 31 648 51:58.6 17:19/M
155 Melissa Perez Edinburg 14 34 655 53:06.2 17:42/M
156 Yvette Benavidez Mcallen 840 36 660 53:25.4 17:48/M
157 Thanya Montemayor McAllen 822 30 667 54:10.3 18:03/M
158 Alma Quintero McAllen 842 31 668 54:11.3 18:04/M
159 Aida Zavala 863 32 676 55:48.7 18:36/M
160 VANESSA BROWN MISSION 861 33 677 55:48.8 18:36/M
161 Jessica Muniz Raymondville 143 37 678 56:18.7 18:46/M
162 PRISCILLA LANE WESLACO 35 39 688 1:00:56.0 20:19/M
163 Veronica Acosta Edinburg 855 38 690 1:02:19.1 20:46/M
164 Brenda Gonzalez McAllen 233 34 691 1:03:07.4 21:02/M
165 Xenia Miramontes Donna 872 35 692 1:03:41.3 21:14/M
Top

Female 40 to 49

Place Name City Bib No Age Overall Total Time Pace
1 Cathy Wilson McAllen 414 40 17 19:42.4 6:34/M
2 SYLVIA TREVINO Edinburg 97 47 24 20:27.5 6:49/M
3 Cat Cavazos McAllen 266 46 29 20:46.8 6:55/M
4 Griselda Perales Mission 948 42 70 23:14.3 7:45/M
5 patricia gonzalez del angel reynosa 112 40 73 23:19.9 7:46/M
6 Teresa Mancabelli Mission 117 48 88 24:19.1 8:06/M
7 Trudi Pacheco McAllen 415 48 95 24:24.9 8:08/M
8 Iris Garza Pharr 265 46 102 24:30.1 8:10/M
9 Eunice Flores Mission 705 41 104 24:34.4 8:11/M
10 Edna Rodriguez Elsa 289 43 108 24:39.9 8:13/M
11 Mitchel Garza McAllen 393 41 109 24:40.7 8:13/M
12 Dolores Garza San Benito 451 48 126 25:17.4 8:26/M
13 Zita De La Garza Mission 183 44 138 25:31.8 8:30/M
14 Kathy Montalvo Mission 718 47 150 25:53.8 8:38/M
15 Jennifer Brown McAllen 710 45 163 26:26.1 8:49/M
16 Leslie Brown La feria 757 42 169 26:40.8 8:53/M
17 Maricela Rosales McAllen 118 40 172 26:49.8 8:56/M
18 Lisa Ramirez Mission 768 49 180 27:10.7 9:03/M
19 Patricia Suarez Pharr 333 42 184 27:19.5 9:06/M
20 ARACELY BALDERAS EDINBURG 278 43 208 28:29.0 9:30/M
21 Monica Garcia Weslaco 920 41 216 28:44.2 9:35/M
22 Theresa Valladares Mission 132 46 218 28:46.1 9:35/M
23 Veronica Tovar McAllen 188 41 222 28:51.7 9:37/M
24 Kimberly Abrigo McAllen 847 45 223 28:52.0 9:37/M
25 Rachel Gutierrez SA 743 47 228 28:57.0 9:39/M
26 DOLORES I GARCIA ROMA 362 46 230 29:06.0 9:42/M
27 Mary Garcia McAllen 919 45 234 29:10.4 9:43/M
28 jessica ruiz Harlingen 700 41 235 29:10.4 9:43/M
29 Lucinda Alejo Palmhurst 283 45 236 29:11.5 9:44/M
30 Marla Alleyne McAllen 344 40 237 29:13.8 9:44/M
31 Sarai Trevino Mission 370 42 244 29:23.6 9:48/M
32 Hilda Ball Harlingen 75 41 246 29:27.6 9:49/M
33 Arlene Espericueta Palmhurst 185 44 247 29:28.8 9:49/M
34 Mary Bell Garza Mission 440 42 254 29:39.5 9:53/M
35 Diana Galaviz Pharr 746 43 258 29:49.8 9:56/M
36 Sue Robinson Harlingen 36 49 263 29:54.3 9:58/M
37 Claudia Garcia McAllen 767 45 267 30:04.1 10:01/M
38 Cristina Wilson McAllen 810 45 268 30:04.7 10:01/M
39 Leticia Sihalla Round Rock 60 46 272 30:12.6 10:04/M
40 Juana Escareno Harlingen 496 49 284 30:31.5 10:10/M
41 Clara Garcia Edinburg 777 46 294 30:51.3 10:17/M
42 Sylvia Arellano San Benito 212 45 299 30:57.4 10:19/M
43 Veronica Flores Weslaco 881 49 301 31:00.7 10:20/M
44 Maria T de la Torre Mercedes 206 49 304 31:14.1 10:25/M
45 cindy garcia Edinburg 221 43 306 31:16.5 10:25/M
46 Jennifer Farias McAllen 116 40 312 31:30.8 10:30/M
47 Melissa Deluna Alamo 814 40 320 31:52.4 10:37/M
48 Barbara Gonzales Edinburg 882 47 323 32:02.8 10:41/M
49 Soledad Martinez Mission 158 48 324 32:03.1 10:41/M
50 Paula Ovalle McAllen 785 43 330 32:17.0 10:46/M
51 Magali Cirlos Pharr 252 42 336 32:25.0 10:48/M
52 Esmeralda Chavez Mission 394 49 342 32:50.4 10:57/M
53 Patricia Moncivais Pharr 286 41 343 32:50.5 10:57/M
54 linda carillo 487 41 344 32:51.7 10:57/M
55 Veronica Ghavidel Palmhurst 281 44 346 32:53.7 10:58/M
56 Anna Sanchez McAllen 120 47 347 32:55.4 10:58/M
57 nancy de la rosa mcallen 115 42 348 32:59.4 11:00/M
58 Victoria Longoria Edinburg 131 46 349 33:04.6 11:01/M
59 Marcia Avila Rio grande city 745 42 356 33:09.3 11:03/M
60 ANA MANCHA MCALLEN 129 47 363 33:28.9 11:09/M
61 Dolores Phillips McAllen 38 45 364 33:33.0 11:11/M
62 Norma Padilla Edinburg 39 49 365 33:33.6 11:11/M
63 Joy Ernst McAllen 229 44 367 33:35.1 11:12/M
64 Bertha Padilla Edinburg 259 46 372 33:46.3 11:15/M
65 Micaela Mickey Ramirez Arcaute Mission 263 47 379 34:13.1 11:24/M
66 Linda Vega Mercedes 423 41 384 34:18.4 11:26/M
67 Christy Vasquez Donna 248 41 398 34:51.7 11:37/M
68 Cristina Reyes Pharr 296 42 409 35:31.9 11:50/M
69 DORIS RIOS ROMA 366 44 412 35:38.9 11:53/M
70 Nancy Villarreal Mission 974 44 421 35:47.9 11:56/M
71 Leticia Zavala Mission 979 40 422 35:48.0 11:56/M
72 Marisa Alvarez Edinburg 28 40 430 35:58.4 11:59/M
73 Griselda Jimenez McAllen 361 42 436 36:12.9 12:04/M
74 Stephanie Leal edinburg 873 40 443 37:00.2 12:20/M
75 Jackie De Leon Edcouch 441 40 444 37:01.5 12:20/M
76 Yvette Richards corpus christi 702 45 456 37:43.8 12:34/M
77 Esmie Bennett Brownvsille 145 43 459 37:47.4 12:36/M
78 Diana Mashburn Harlingen 144 43 460 37:48.4 12:36/M
79 Alexandra Molina Mcallen 329 44 467 38:13.2 12:44/M
80 Araceli Sanchez Round Rock 59 49 470 38:17.8 12:46/M
81 Mary Contreras Mcallen 428 43 472 38:30.6 12:50/M
82 Cristina Vasquez McAllen 737 42 473 38:38.0 12:53/M
83 Sylvette Ibay Mission 297 44 478 38:52.6 12:57/M
84 Celia Gonzalez Falfurrias 86 49 480 38:57.0 12:59/M
85 Sabrina Franco Elsa 312 43 482 38:58.7 12:59/M
86 Raquel Rodriguez mcallen 66 43 484 39:06.9 13:02/M
87 Rosy Moncada Pharr 285 44 490 39:17.7 13:06/M
88 Iliana Flores Houston 911 44 494 39:23.6 13:08/M
89 Ana Zambrano pharr 379 44 495 39:25.2 13:08/M
90 Brenda Leyva Harlingen 235 45 513 41:10.1 13:43/M
91 Julia Arredondo Alton 490 45 516 41:14.6 13:45/M
92 Melinda Garcia Mercedes 425 40 531 41:53.1 13:58/M
93 dominga garcia mission 139 40 532 41:54.1 13:58/M
94 Angelina Driscoll Edinburg 908 41 533 41:54.6 13:58/M
95 Marisa Taylor McAllen 245 41 546 42:32.4 14:11/M
96 Lily Alvarez Donna 275 49 557 43:08.8 14:23/M
97 Rachel Canales- Mascorro Edinburg 789 42 560 43:35.5 14:32/M
98 Bertha Torres San Benito 80 45 563 43:55.7 14:38/M
99 Julieta Pena Rio Grande City 946 43 567 44:11.5 14:44/M
100 Liza Ramos pharr 376 44 571 44:20.8 14:47/M
101 Olga Diaz Brownsville 147 48 574 44:44.5 14:55/M
102 Laura Negrete Edinburg 217 41 576 44:46.7 14:55/M
103 Laura Rodriguez Palmview 407 40 588 45:27.0 15:09/M
104 Pamela Mata McAllen 495 49 591 45:42.7 15:14/M
105 sandra gonzalez Alamo 301 43 593 45:46.6 15:15/M
106 Ana Garza Pharr 831 49 597 45:51.8 15:17/M
107 Cantu Rosie Pharr 48 41 601 46:19.2 15:26/M
108 Diamantina Rodriguez Mercedes 4 46 606 46:49.1 15:36/M
109 CUEVAS Weslaco 6 49 607 46:49.2 15:36/M
110 Alma Prieto Weslaco 211 43 612 47:01.5 15:40/M
111 Della Juarez Harlingen 146 41 613 47:03.0 15:41/M
112 Julissa Alanis Mission 353 40 617 47:19.8 15:46/M
113 Julie Garcia Mercedes 5 42 620 47:55.9 15:58/M
114 beatrice amador Edinburg 219 49 631 48:42.3 16:14/M
115 Josie Garcia McAllen 257 45 634 49:34.1 16:31/M
116 Teri DeAnda Alton 196 45 641 50:28.4 16:49/M
117 Yvette Salinas Edinburg 851 47 644 51:28.6 17:09/M
118 Nancy Ramirez Alton 149 40 646 51:48.2 17:16/M
119 Irasema Trevino Mission 354 46 649 51:59.5 17:20/M
120 Mari Ochoa McAllen 161 41 664 54:06.6 18:02/M
121 Yeana Garza edinburg 159 44 669 54:33.6 18:11/M
122 Andrea Salinas san juan 163 47 670 54:34.1 18:11/M
123 Ronnie Morales Weslaco 940 40 673 55:12.9 18:24/M
124 Zulema Rodriguez Edinburg 160 44 674 55:47.7 18:36/M
125 Monica Rodriguez Austin 292 44 675 55:48.2 18:36/M
126 Juana Sanchez Mission 61 40 684 57:28.5 19:09/M
Top

Female 50 and Over

Place Name City Bib No Age Overall Total Time Pace
1 Maria Flores Reynosa 754 51 76 23:46.9 7:55/M
2 Sugar Vela Brownsville 971 56 182 27:14.8 9:05/M
3 Anna Ramirez San Benito 952 50 183 27:18.1 9:06/M
4 Lucy Rodriguez McAllen 72 57 193 27:46.9 9:15/M
5 Rebecca Villarreal penitas 809 61 276 30:23.3 10:08/M
6 Yolanda Rangel Edinburg 27 54 303 31:10.9 10:23/M
7 Cynthia Torres Edinburg 220 51 354 33:08.5 11:03/M
8 Maria Escareno Harlingen 497 51 429 35:57.9 11:59/M
9 Martha Salazar Pharr 254 60 437 36:20.1 12:07/M
10 Irene Snell Alamo 963 51 447 37:07.0 12:22/M
11 Sharon Rice Mission 210 61 454 37:36.2 12:32/M
12 Isabel Estrada Brownsville 30 51 463 37:59.8 12:40/M
13 Hinojosa Sandra McAllen 2 62 481 38:58.5 12:59/M
14 Bertha Maldonado pharrr 399 55 488 39:15.5 13:05/M
15 Rebecca Montemayor San Juan 409 53 501 39:51.8 13:17/M
16 Jo Hasler Edinburg 792 52 512 40:45.8 13:35/M
17 Gina Rivera Mission 346 50 520 41:28.7 13:49/M
18 Linda Garcia Alice 291 65 530 41:51.9 13:57/M
19 Elva Izaguirre Pharr 77 51 551 42:43.8 14:14/M
20 Mary Mata Mcallen 134 62 552 43:01.9 14:20/M
21 Rubi Montemayor McAllen 823 51 555 43:05.0 14:22/M
22 Lisa Luna McAllen 421 50 570 44:17.8 14:46/M
23 Connie Vela Mcllen 133 63 579 44:55.9 14:58/M
24 Jennifer Rivas 833 50 580 45:01.9 15:00/M
25 Vera Lenderts Edinburg 933 58 582 45:04.2 15:01/M
26 Sandra Garcia Weslaco 213 50 585 45:08.0 15:03/M
27 Elisa Gonzalez Falfurrias 85 53 587 45:16.9 15:05/M
28 Connie Ipina Alamo 484 53 595 45:48.3 15:16/M
29 Rhodora Duazo McAllen 727 51 603 46:21.5 15:27/M
30 Susie Rodriguez Mission 135 60 605 46:48.4 15:36/M
31 Bertha hernandez mcallen 114 54 624 48:13.1 16:04/M
32 Connie Fielder McAllen 71 68 628 48:34.4 16:11/M
33 Estela Corpus Mission 347 77 629 48:37.3 16:12/M
34 Kathryn Butler McAllen 18 64 657 53:07.6 17:42/M
35 Mary Blanch De Leon Harlingen 766 68 679 56:27.1 18:49/M
36 Elaine Ayala San Benito 764 59 680 56:27.8 18:49/M
37 Francisca Sanchez McAllen 63 74 683 57:28.5 19:09/M
Top

Male 14 and Under

Place Name City Bib No Age Overall Total Time Pace
1 alonso gonzalez 1000 13 1 16:48.2 5:36/M
2 Felix Perez 90001 14 4 17:35.4 5:52/M
3 Max Zepeda Pharr 251 13 25 20:38.5 6:53/M
4 Santiago Guerrero Mission 848 14 28 20:44.5 6:55/M
5 Tristen Palacios McAllen 157 12 33 20:50.5 6:57/M
6 Derek Guerra Santa Rosa 315 12 42 21:36.0 7:12/M
7 Emiliano Zepeda Pharr 250 13 53 22:27.0 7:29/M
8 juan cardenas 985 14 65 22:48.3 7:36/M
9 Sevan Solis Edinburg 753 12 165 26:30.8 8:50/M
10 Alex Montemayor McAllen 879 11 166 26:33.6 8:51/M
11 Caleb James Garcia Harlingen 57 12 192 27:46.5 9:15/M
12 joaron martinez 986 11 257 29:46.8 9:55/M
13 John Trevino Edinburg 751 11 375 34:01.8 11:20/M
14 Eloy Gallegos Mission 101 11 396 34:42.1 11:34/M
15 Ian Kenison McAllen 253 5 427 35:55.9 11:58/M
16 aidan garcia la joya isd 827 12 475 38:45.9 12:55/M
17 Ezra Palacios McAllen 156 8 502 39:54.8 13:18/M
18 Abraham Jr. Garcia pharr 108 3 519 41:28.5 13:49/M
19 aaron garcia la joya 828 14 540 42:24.3 14:08/M
20 zuniga jaime 996 7 559 43:32.0 14:31/M
21 Derek Contreras San Benito 82 7 562 43:55.1 14:38/M
22 Ethan Vasquez Weslaco 203 5 572 44:41.3 14:54/M
23 Rusty Kite McAllen 68 6 577 44:46.8 14:55/M
24 Cantu Sebastion Pharr 50 11 590 45:41.2 15:14/M
25 Max Rincon McAllen 42 7 614 47:10.7 15:43/M
26 Takumi Meza Mission 867 7 635 49:48.0 16:36/M
27 PRESTON LANE WESLACO 32 8 685 1:00:05.3 20:02/M
28 VAUGHN LANE WESLACO 34 4 686 1:00:06.3 20:02/M
29 Ruben Reyes Edinburg 309 12 694 1:04:13.2 21:24/M
Top

Male 15 to 19

Place Name City Bib No Age Overall Total Time Pace
1 Irving Heredia Mission 387 15 2 16:56.5 5:39/M
2 alexis sanchez 993 18 3 17:21.1 5:47/M
3 Eddy Tovar Alton 388 15 5 17:39.3 5:53/M
4 Andrew Sandoval Mission 401 16 9 18:27.9 6:09/M
5 Brandon Orrego Mission 944 16 11 18:39.0 6:13/M
6 Jose A. Esqueda Edinburg 288 15 13 19:06.0 6:22/M
7 Jason Villarreal Mission 389 15 21 20:17.4 6:46/M
8 David Corpus Edinburg 348 16 80 24:02.8 8:01/M
9 Omar Rodriguez Edinburg 169 19 105 24:36.8 8:12/M
10 Gilberto Beas Hidalgo 53 17 134 25:28.1 8:29/M
11 Jaime Balderas Edinburg 279 18 201 28:10.1 9:23/M
12 Manny Reyes Mission 818 16 207 28:24.5 9:28/M
13 Marc Cervantez Pharr 328 16 461 37:50.9 12:37/M
14 Robert Gonzalez III McAllen 299 17 476 38:47.3 12:56/M
15 Jacob Garcia Harlingen 52 17 616 47:15.1 15:45/M
16 carlos davila mission 729 15 672 54:37.7 18:12/M
17 Dylan Jimenez pharr 377 15 689 1:01:20.6 20:27/M
Top

Male 20 to 29

Place Name City Bib No Age Overall Total Time Pace
1 Hector Orozco Donna 230 26 6 18:11.3 6:04/M
2 carlos paolomo 983 27 8 18:17.7 6:06/M
3 Felix Martinez Mission 860 29 15 19:21.5 6:27/M
4 Daniel Gallegos McAllen 395 29 16 19:25.4 6:28/M
5 Benjamin Fuentes IV Edinburg 740 27 20 20:12.0 6:44/M
6 David Gonzalez McAllen 798 24 36 21:13.4 7:04/M
7 Juan Cortina Rio Grande 174 22 43 21:48.2 7:16/M
8 John Paul Cantu Harlingen 846 24 45 21:52.7 7:17/M
9 Brandon Simmons Donna 73 27 56 22:36.0 7:32/M
10 Ray Arrambide donna 887 24 66 22:55.5 7:38/M
11 Alben Perez Edinburg 815 25 92 24:24.2 8:08/M
12 Eli Infante Donna 320 29 118 25:05.0 8:22/M
13 Anwar Contreras Mission 476 29 133 25:26.5 8:29/M
14 monty henderson seattle 483 28 146 25:45.7 8:35/M
15 Luis Cardenas Pharr 449 27 154 26:04.3 8:41/M
16 Tony Flores Penitas 475 28 162 26:24.8 8:48/M
17 Luis Webb Mcallen 975 25 167 26:35.9 8:52/M
18 Jose Martinez McAllen 380 25 173 26:52.5 8:57/M
19 Ronnie Zamora Edinburg 752 27 186 27:26.6 9:09/M
20 Evan Smith Edinburg 853 27 203 28:13.5 9:24/M
21 Adrian De La Rosa Mission 177 28 206 28:24.5 9:28/M
22 Randy Jailani 987 27 214 28:41.5 9:34/M
23 Daniel Flores Mercedes 102 24 240 29:17.2 9:46/M
24 Jaime Salazar Jr Edinburg 293 24 251 29:37.0 9:52/M
25 Irving Alday Hidalgo 467 22 307 31:20.1 10:27/M
26 Alejandro Ibarra 819 25 374 33:52.6 11:17/M
27 cesar riojas rio grande city 955 29 391 34:26.3 11:29/M
28 Johnny Salinas Donna 277 26 453 37:32.5 12:31/M
29 Leo Duque Mission 330 28 468 38:13.8 12:44/M
30 Steve Molina McAllen 175 28 496 39:27.7 13:09/M
31 Ricardo Garza McAllen 280 24 515 41:13.5 13:44/M
32 Robert Espinosa Brownsville 910 29 621 48:02.5 16:01/M
33 Connor Friedrichs McAllen 304 24 654 53:01.6 17:40/M
34 Andrew Butler McAllen 19 27 656 53:06.9 17:42/M
35 Erik Constante Mission 824 29 666 54:10.2 18:03/M
Top

Male 30 to 39

Place Name City Bib No Age Overall Total Time Pace
1 Hector Gandara 90002 33 10 18:28.1 6:09/M
2 Juan Carlos Pena Mcallen 438 32 14 19:15.2 6:25/M
3 heber avalos soto reynosa 113 37 27 20:42.9 6:54/M
4 Ruben Perez San juan 714 34 30 20:47.0 6:56/M
5 Javier Gonzalez Mission 20 30 37 21:16.1 7:05/M
6 Oscar Sanchez Rio Grande 173 33 38 21:20.7 7:07/M
7 Rogelio Cantu McAllen 825 39 39 21:28.1 7:09/M
8 Christian Trevino Edinburg 246 32 41 21:32.5 7:11/M
9 Eduardo Cantu Monte Alto 16 34 46 21:53.7 7:18/M
10 David Tapia Mission 24 34 47 22:00.4 7:20/M
11 Manny Perez Edinburg 359 32 61 22:45.5 7:35/M
12 Francisco Hernandez Edinburg 464 34 68 23:02.2 7:41/M
13 Rodrigo Rodriguez McAllen 127 33 69 23:09.7 7:43/M
14 Baldemar Garcia Edinburg 918 35 72 23:17.8 7:46/M
15 Marco Aranda McAllen 323 38 74 23:27.1 7:49/M
16 Yuuichi Inomata Mcallen 345 33 85 24:14.2 8:05/M
17 James Torres Mission 965 36 89 24:20.4 8:07/M
18 Rafael Curiel Austin 290 38 90 24:21.9 8:07/M
19 Jorge Montemayor McAllen 877 35 103 24:31.8 8:10/M
20 Izzy Quintero Alton 843 32 106 24:37.0 8:12/M
21 Chris Larson McAllen 760 32 111 24:46.0 8:15/M
22 Lee Cervantes McAllen 771 37 132 25:26.2 8:29/M
23 Brian Yust McAllen 104 34 142 25:39.5 8:33/M
24 Nicolas Cervantes Edinburg 458 34 143 25:39.6 8:33/M
25 David Rodriguez Edinburg 340 36 148 25:48.6 8:36/M
26 cesar hidalgo 992 35 149 25:53.2 8:38/M
27 Eric Pietas Weslaco 478 38 185 27:23.9 9:08/M
28 EJ Rivera Edinburg 10 36 190 27:44.1 9:15/M
29 Abraham Vela Weslaco 970 33 191 27:45.1 9:15/M
30 Paul Garcia Mission 921 34 194 27:52.8 9:17/M
31 Juan Nevarez McAllen 721 36 197 28:02.4 9:21/M
32 arturo tijerina mission 367 31 198 28:07.4 9:22/M
33 Jorge Lopez Alamo 197 36 199 28:07.9 9:22/M
34 Oscar Trigo Rio Grande City 119 33 202 28:11.4 9:24/M
35 Tomas Martinez Alton 270 35 210 28:32.3 9:31/M
36 George Salazar Raymondville 40 36 221 28:49.8 9:36/M
37 JR Ruiz alamo 960 33 265 29:58.0 9:59/M
38 Pablo Nino Mcallen 258 30 283 30:31.0 10:10/M
39 Mario Abed McAllen 222 38 297 30:53.0 10:18/M
40 Mike Tello Mission 468 38 319 31:51.1 10:37/M
41 Alex Garcia McAllen 403 32 377 34:03.9 11:21/M
42 Eric Austin Mission 269 36 386 34:21.2 11:27/M
43 David Mercado III Edinburg 758 35 402 35:03.4 11:41/M
44 Edward Sanchez McAllen 759 30 403 35:04.0 11:41/M
45 Uriel Benavidez Mcallen 839 34 423 35:48.8 11:56/M
46 Raul Liendo Harlingen 934 30 424 35:49.9 11:56/M
47 Rogelio Moya Mission 22 36 425 35:53.8 11:58/M
48 Juan De la paz Brownsville 324 31 432 36:03.7 12:01/M
49 Earl Lane Weslaco 33 38 448 37:14.5 12:25/M
50 Jorge Solorzano Weslaco 802 35 469 38:17.0 12:46/M
51 arnold morin 95 39 492 39:21.4 13:07/M
52 Ross Palacios Edinburg 155 34 503 39:55.1 13:18/M
53 Raul Salazar Harlingen 41 38 535 42:00.9 14:00/M
54 Noe Salinas McAllen 494 30 542 42:25.7 14:08/M
55 andy garcia la joya 829 38 547 42:34.5 14:11/M
56 Jorge Garcia McAllen 480 30 550 42:37.2 14:12/M
57 Ruben Muniz Raymondville 142 37 599 46:14.0 15:25/M
58 Manuel Hernandez Brownsville 837 36 610 46:55.8 15:38/M
59 Carlos Chavarria Mcallen 454 31 639 50:24.3 16:48/M
60 Andre Cano Harlingen 500 32 650 52:14.1 17:25/M
61 Eric Miramontes Donna 871 35 658 53:15.8 17:45/M
62 Efraim Ochoa mcallen 162 39 665 54:07.7 18:02/M
DNF Galen Rupp 1001 30 2  
DNF MO Farah 1002 33 1  
Top

Male 40 to 49

Place Name City Bib No Age Overall Total Time Pace
1 Brant Wilson McAllen 413 42 12 18:46.7 6:15/M
2 Ray Trevino Brownsville 968 46 18 19:51.9 6:37/M
3 Joey Buitron McAllen 392 45 19 20:00.4 6:40/M
4 Steve Morrison McAllen 439 47 23 20:23.2 6:48/M
5 Martin Esquivel McAllen 749 48 35 21:08.4 7:03/M
6 Jesus Phillip Fernandez Mission 26 43 40 21:29.1 7:10/M
7 Beto Alvarez San Juan 707 49 48 22:14.7 7:25/M
8 Guillermo Del olmo mission 838 43 49 22:16.6 7:25/M
9 Jorge Coria McAllen 835 40 51 22:22.0 7:27/M
10 Ivan Karr McAllen 854 41 52 22:23.1 7:28/M
11 Ramiro Cazares Jr Mercedes 205 49 55 22:33.9 7:31/M
12 Jose Cepeda Port Isabel 713 44 59 22:40.4 7:33/M
13 Gregory Ball Harlingen 74 49 62 22:47.3 7:36/M
14 Gabriel Sosa McAllen 803 48 63 22:47.9 7:36/M
15 David Moyle McAllen 427 48 64 22:48.1 7:36/M
16 Brian Woodcock Harlingen 870 47 75 23:29.7 7:50/M
17 Dan Vlaisavljevic Edinburg 782 46 78 24:01.5 8:00/M
18 Emiliano Montenegro Weslaco 938 41 81 24:04.7 8:01/M
19 Esteban Padilla Edinburg 260 43 83 24:10.6 8:03/M
20 Carlos Limon McAllen 187 46 96 24:25.4 8:08/M
21 Pablo Barcena Reynosa 462 47 110 24:43.6 8:14/M
22 Serkan Celtek McAllen 794 44 114 24:56.0 8:19/M
23 richard ayala Mission 763 48 117 25:01.9 8:20/M
24 Dean Garza San Benito 450 47 125 25:16.9 8:25/M
25 Omar Meza Mission 865 43 129 25:21.1 8:27/M
26 Jason Brown La Feria 756 44 130 25:21.1 8:27/M
27 File Gonzalez Edinburg 800 40 131 25:22.9 8:27/M
28 Roberto Delgado Brownsville 899 43 135 25:28.7 8:29/M
29 OSCAR CASTILLO RANGEL Reynosa 316 40 136 25:29.5 8:30/M
30 Gilberto Beas McAllen 45 43 137 25:31.6 8:30/M
31 Joe Solis Edinburg 869 48 141 25:37.2 8:32/M
32 Marco Trevino Mission 369 47 153 26:03.7 8:41/M
33 Gabriel Gaspar Pharr 400 40 155 26:08.0 8:43/M
34 Jose Esqueda Edinburg 287 45 157 26:14.8 8:45/M
35 Omar Salinas McAllen 268 45 164 26:29.0 8:50/M
36 Mario Martinez Donna 47 40 174 27:00.3 9:00/M
37 Edgar Torres McAllen 189 47 189 27:41.6 9:14/M
38 Jose Gomez Mission 21 47 204 28:16.0 9:25/M
39 Luis Cabrera Edinburg 481 42 205 28:18.3 9:26/M
40 Tony Quintanilla McAllen 218 49 229 28:59.9 9:40/M
41 Mike Trevino McAllen 326 44 242 29:18.8 9:46/M
42 Efrain Davila Reynosa 461 46 250 29:36.5 9:52/M
43 Joe Rocks Edinburg 406 41 253 29:37.4 9:52/M
44 Narciso Martinez Edinburg 128 40 260 29:52.6 9:57/M
45 Jose Perales Mission 950 43 277 30:23.7 10:08/M
46 Mark Vasquez Pharr 813 44 279 30:24.9 10:08/M
47 Armando Garcia McAllen 408 49 281 30:29.6 10:10/M
48 Israel Vega Mercedes 422 43 313 31:40.3 10:33/M
49 Tony Huerta 805 42 328 32:11.5 10:44/M
50 eric bou 981 48 345 32:51.9 10:57/M
51 Ruben Reyes Edinburg 306 40 360 33:23.7 11:08/M
52 Fausto Gonzalez Alamo 300 44 388 34:24.8 11:28/M
53 Jose Rodriguez McAllen 372 44 395 34:39.1 11:33/M
54 Juan Cardenas Alice 896 40 410 35:32.5 11:51/M
55 Juan Cadena Mission 215 44 420 35:47.6 11:56/M
56 Joe De Leon Edcouch 442 41 445 37:01.9 12:20/M
57 Julio Rincon McAllen 43 44 450 37:19.2 12:26/M
58 Javier Cavazos McAllen 238 40 466 38:11.7 12:44/M
59 Hector Arredondo Alton 489 49 509 40:34.0 13:31/M
60 Armando Lopez La villa 444 40 538 42:17.4 14:06/M
61 Ernesto Mascorro Edinburg 319 43 578 44:51.1 14:57/M
62 Brian Payne McAllen 224 46 584 45:07.3 15:02/M
63 David Contreras San Benito 81 45 586 45:11.1 15:04/M
64 Richard Ayala San Antonio 762 48 609 46:51.1 15:37/M
65 Louie Garcia Harlingen 51 49 615 47:13.6 15:44/M
66 Alfonso A. De Leon III San Benito 765 44 632 49:07.7 16:22/M
67 juan garza harlingen 701 40 633 49:09.6 16:23/M
68 ALBERTO SALINAS ROMA 363 49 636 50:03.3 16:41/M
69 Ralph DeAnda Alton 228 47 640 50:25.3 16:48/M
70 Yuki Mamiya Mission 866 42 643 50:43.7 16:54/M
71 Albert Islas Edinburg 850 47 651 52:39.2 17:33/M
Top

Male 50 and Over

Place Name City Bib No Age Overall Total Time Pace
1 Ruben Ahumada Edinburg 208 54 22 20:18.3 6:46/M
2 german perez 999 56 54 22:32.9 7:31/M
3 Eligio Trevino McAllen 125 51 79 24:01.8 8:00/M
4 Ricardo Lira Alamo 708 52 82 24:09.8 8:03/M
5 Rene Sosa Edinburg 457 72 91 24:22.4 8:07/M
6 Daniel Perez Edinburg 775 50 94 24:24.9 8:08/M
7 George Cantu Harlingen 845 51 97 24:26.3 8:09/M
8 Tony Jalomo McAllen 874 51 98 24:27.5 8:09/M
9 Rudy Flores edinburg 207 51 107 24:37.9 8:12/M
10 Peter de Jong Mission 772 54 112 24:50.4 8:17/M
11 Brig Vilchez Donna 276 55 140 25:36.4 8:32/M
12 Nick Quezada Mission 123 70 145 25:42.4 8:34/M
13 Raul Munguia McAllen 126 60 159 26:15.9 8:45/M
14 Antolin Garza McAllen 426 66 160 26:17.1 8:46/M
15 Jose A. Garza Mission 738 59 196 28:02.3 9:21/M
16 Rafael Mendoza San Juan 420 56 200 28:09.7 9:23/M
17 Bob Galligan Weslaco 477 74 219 28:48.5 9:36/M
18 randy Cleveland McAllen 832 65 220 28:49.3 9:36/M
19 RAMON MANCHA MCALLEN 130 50 225 28:54.1 9:38/M
20 Jerry Robinson Harlingen 37 53 227 28:55.9 9:38/M
21 Ken Smith Edinburg 411 50 262 29:53.1 9:58/M
22 Rogelio Duque Mission 331 57 278 30:23.8 10:08/M
23 Robert Sandoval Mission 402 50 337 32:30.2 10:50/M
24 Oswaldo Garcia Brownsvile 31 60 464 38:00.7 12:40/M
25 jorge chapa 998 57 483 39:03.6 13:01/M
26 Ken Buckman Edinburg 433 65 486 39:14.5 13:05/M
27 Mario Hinojosa McAllen 1 62 511 40:40.6 13:33/M
28 reynaldo garcia mission 140 52 529 41:47.7 13:56/M
29 Leandro Perales Hidalgo 951 73 536 42:14.8 14:05/M
30 isaac salinas 87 55 592 45:45.5 15:15/M
31 Roland Perez Palmhurst 712 53 594 45:47.8 15:16/M
32 Frank Rodriguez Mcallen 459 52 596 45:50.6 15:17/M
33 Larry Prater McAllen 234 67 622 48:04.9 16:01/M
34 Joseph Duazo McAllen 726 50 663 53:51.6 17:57/M
35 Eliborio Rodriguez Edinburg 310 74 693 1:04:06.7 21:22/M